Two Rivers, Wisconsin
Current Conditions -  °F | °C
As of 1:56 PM on Thursday 23 Oct 2014 (Local Time) from KMTW Reporting Station
Clear Clear  
Wind Chill: 52°   Ceiling: Unl
Heat Index: 52°   Visibility: 10mi
Dew Point: 44°   Wind: 10mph
Humidity: 74%   Direction: 160°SSE
Pressure: 30.09"   Gusts: NA
Location:  44.15°N, 87.57°W
Report Text: KMTW 231856Z AUTO 16009KT 10SM CLR 11/07 A3009 RMK AO2 SLP217 T01110067
Loading
Personal Weather Stations






























Interactive Weather Map
Tropical Storm Tracking
New forecast layout! Learn more

10-Day Weather Forecast

Advertisements
Track Severe Weather on mobile